Terminal Aerodrome Forecast
Issued by NWS

Home | Current Version | Previous Version | Text Only | Print | Product List | Glossary On
Versions: 1 2 3 4 5 6 7 8 9 10 11 12 13 14 15 16 17
000
FTUS45 KABQ 211120
TAFTCC
TAF
KTCC 211120Z 2112/2212 18010KT P6SM VCSH BKN040 OVC070
      TEMPO 2112/2115 6SM -SHRA BR OVC025
     FM211600 21007KT P6SM VCSH SCT030 BKN050
     FM211900 20012G18KT P6SM SCT080 BKN120
     FM220100 22007KT P6SM VCTS SCT080CB BKN120=

USA.gov is the U.S. government's official web portal to all federal, state and local government web resources and services.